sensor_id;sensor_type;location;lat;lon;timestamp;P1;durP1;ratioP1;P2;durP2;ratioP2
70547;SDS011;58099;43.406;3.698;2022-12-24T00:01:40;6.00;;;2.07;;
70547;SDS011;58099;43.406;3.698;2022-12-24T00:04:06;4.70;;;1.80;;
70547;SDS011;58099;43.406;3.698;2022-12-24T00:06:32;5.17;;;1.77;;
70547;SDS011;58099;43.406;3.698;2022-12-24T00:08:58;5.10;;;2.05;;
70547;SDS011;58099;43.406;3.698;2022-12-24T00:11:24;6.33;;;1.80;;
70547;SDS011;58099;43.406;3.698;2022-12-24T00:13:49;4.95;;;1.88;;
70547;SDS011;58099;43.406;3.698;2022-12-24T00:16:15;5.80;;;2.23;;
70547;SDS011;58099;43.406;3.698;2022-12-24T00:18:41;5.93;;;2.05;;
70547;SDS011;58099;43.406;3.698;2022-12-24T00:21:06;5.33;;;2.23;;
70547;SDS011;58099;43.406;3.698;2022-12-24T00:23:32;5.32;;;1.77;;
70547;SDS011;58099;43.406;3.698;2022-12-24T00:25:58;5.00;;;1.90;;
70547;SDS011;58099;43.406;3.698;2022-12-24T00:28:23;7.10;;;2.05;;
70547;SDS011;58099;43.406;3.698;2022-12-24T00:30:50;5.47;;;1.70;;
70547;SDS011;58099;43.406;3.698;2022-12-24T00:33:16;6.75;;;1.83;;
70547;SDS011;58099;43.406;3.698;2022-12-24T00:35:41;4.57;;;1.67;;
70547;SDS011;58099;43.406;3.698;2022-12-24T00:38:07;4.63;;;1.52;;
70547;SDS011;58099;43.406;3.698;2022-12-24T00:40:33;5.10;;;1.70;;
70547;SDS011;58099;43.406;3.698;2022-12-24T00:42:59;4.72;;;1.75;;
70547;SDS011;58099;43.406;3.698;2022-12-24T00:45:25;4.80;;;1.80;;
70547;SDS011;58099;43.406;3.698;2022-12-24T00:47:52;6.15;;;1.80;;
70547;SDS011;58099;43.406;3.698;2022-12-24T00:50:17;4.93;;;1.50;;
70547;SDS011;58099;43.406;3.698;2022-12-24T00:52:43;5.33;;;1.77;;
70547;SDS011;58099;43.406;3.698;2022-12-24T00:55:09;4.40;;;1.45;;
70547;SDS011;58099;43.406;3.698;2022-12-24T00:57:34;4.77;;;1.20;;
70547;SDS011;58099;43.406;3.698;2022-12-24T01:00:00;4.93;;;1.65;;
70547;SDS011;58099;43.406;3.698;2022-12-24T01:02:26;4.57;;;1.40;;
70547;SDS011;58099;43.406;3.698;2022-12-24T01:04:52;5.05;;;1.60;;
70547;SDS011;58099;43.406;3.698;2022-12-24T01:07:36;4.80;;;1.50;;
70547;SDS011;58099;43.406;3.698;2022-12-24T01:10:06;5.18;;;1.50;;
70547;SDS011;58099;43.406;3.698;2022-12-24T01:12:32;4.10;;;1.25;;
70547;SDS011;58099;43.406;3.698;2022-12-24T01:14:58;3.63;;;1.13;;
70547;SDS011;58099;43.406;3.698;2022-12-24T01:17:24;4.30;;;1.00;;
70547;SDS011;58099;43.406;3.698;2022-12-24T01:19:49;4.18;;;0.90;;
70547;SDS011;58099;43.406;3.698;2022-12-24T01:22:15;4.80;;;1.30;;
70547;SDS011;58099;43.406;3.698;2022-12-24T01:24:41;4.32;;;1.40;;
70547;SDS011;58099;43.406;3.698;2022-12-24T01:27:07;4.87;;;1.30;;
70547;SDS011;58099;43.406;3.698;2022-12-24T01:29:33;5.60;;;1.60;;
70547;SDS011;58099;43.406;3.698;2022-12-24T01:31:59;3.77;;;1.00;;
70547;SDS011;58099;43.406;3.698;2022-12-24T01:34:24;4.05;;;1.15;;
70547;SDS011;58099;43.406;3.698;2022-12-24T01:36:50;4.10;;;1.20;;
70547;SDS011;58099;43.406;3.698;2022-12-24T01:39:31;3.97;;;1.20;;
70547;SDS011;58099;43.406;3.698;2022-12-24T01:41:57;4.40;;;1.30;;
70547;SDS011;58099;43.406;3.698;2022-12-24T01:44:42;4.45;;;1.30;;
70547;SDS011;58099;43.406;3.698;2022-12-24T01:47:22;4.03;;;1.35;;
70547;SDS011;58099;43.406;3.698;2022-12-24T01:49:52;5.60;;;1.00;;
70547;SDS011;58099;43.406;3.698;2022-12-24T01:52:23;5.15;;;1.35;;
70547;SDS011;58099;43.406;3.698;2022-12-24T01:57:32;5.00;;;1.30;;
70547;SDS011;58099;43.406;3.698;2022-12-24T02:00:11;3.60;;;1.20;;
70547;SDS011;58099;43.406;3.698;2022-12-24T02:02:39;4.75;;;1.58;;
70547;SDS011;58099;43.406;3.698;2022-12-24T02:05:10;4.32;;;1.48;;
70547;SDS011;58099;43.406;3.698;2022-12-24T02:07:46;4.87;;;1.30;;
70547;SDS011;58099;43.406;3.698;2022-12-24T02:10:13;5.32;;;1.45;;
70547;SDS011;58099;43.406;3.698;2022-12-24T02:12:39;4.32;;;1.30;;
70547;SDS011;58099;43.406;3.698;2022-12-24T02:15:07;5.15;;;1.20;;
70547;SDS011;58099;43.406;3.698;2022-12-24T02:25:50;5.15;;;1.33;;
70547;SDS011;58099;43.406;3.698;2022-12-24T02:31:10;4.17;;;1.50;;
70547;SDS011;58099;43.406;3.698;2022-12-24T02:33:53;5.05;;;1.27;;
70547;SDS011;58099;43.406;3.698;2022-12-24T02:36:32;4.63;;;1.30;;
70547;SDS011;58099;43.406;3.698;2022-12-24T02:39:13;5.00;;;1.20;;
70547;SDS011;58099;43.406;3.698;2022-12-24T02:41:51;4.63;;;1.23;;
70547;SDS011;58099;43.406;3.698;2022-12-24T02:44:30;4.60;;;1.20;;
70547;SDS011;58099;43.406;3.698;2022-12-24T02:47:02;3.92;;;1.27;;
70547;SDS011;58099;43.406;3.698;2022-12-24T02:49:30;4.32;;;1.50;;
70547;SDS011;58099;43.406;3.698;2022-12-24T02:51:56;4.28;;;1.13;;
70547;SDS011;58099;43.406;3.698;2022-12-24T02:54:21;4.50;;;1.33;;
70547;SDS011;58099;43.406;3.698;2022-12-24T03:08:06;5.45;;;1.92;;
70547;SDS011;58099;43.406;3.698;2022-12-24T03:13:22;5.88;;;1.80;;
70547;SDS011;58099;43.406;3.698;2022-12-24T03:15:49;4.88;;;1.63;;
70547;SDS011;58099;43.406;3.698;2022-12-24T03:18:20;4.40;;;1.65;;
70547;SDS011;58099;43.406;3.698;2022-12-24T03:20:56;4.80;;;1.92;;
70547;SDS011;58099;43.406;3.698;2022-12-24T03:23:34;4.60;;;1.70;;
70547;SDS011;58099;43.406;3.698;2022-12-24T03:26:00;5.20;;;1.80;;
70547;SDS011;58099;43.406;3.698;2022-12-24T03:28:30;5.03;;;1.70;;
70547;SDS011;58099;43.406;3.698;2022-12-24T03:30:59;5.35;;;1.67;;
70547;SDS011;58099;43.406;3.698;2022-12-24T03:33:27;5.60;;;1.75;;
70547;SDS011;58099;43.406;3.698;2022-12-24T03:35:53;5.33;;;1.70;;
70547;SDS011;58099;43.406;3.698;2022-12-24T03:38:19;5.35;;;1.80;;
70547;SDS011;58099;43.406;3.698;2022-12-24T03:40:45;5.77;;;1.83;;
70547;SDS011;58099;43.406;3.698;2022-12-24T03:43:10;5.53;;;1.92;;
70547;SDS011;58099;43.406;3.698;2022-12-24T03:45:36;5.30;;;1.90;;
70547;SDS011;58099;43.406;3.698;2022-12-24T03:48:02;5.57;;;1.33;;
70547;SDS011;58099;43.406;3.698;2022-12-24T03:50:28;4.20;;;1.30;;
70547;SDS011;58099;43.406;3.698;2022-12-24T03:52:54;5.53;;;1.60;;
70547;SDS011;58099;43.406;3.698;2022-12-24T03:55:20;4.07;;;1.45;;
70547;SDS011;58099;43.406;3.698;2022-12-24T03:57:46;4.85;;;1.50;;
70547;SDS011;58099;43.406;3.698;2022-12-24T04:00:12;5.47;;;1.35;;
70547;SDS011;58099;43.406;3.698;2022-12-24T04:02:38;5.73;;;1.60;;
70547;SDS011;58099;43.406;3.698;2022-12-24T04:05:05;5.95;;;1.58;;
70547;SDS011;58099;43.406;3.698;2022-12-24T04:07:32;4.93;;;1.77;;
70547;SDS011;58099;43.406;3.698;2022-12-24T04:09:58;4.28;;;1.60;;
70547;SDS011;58099;43.406;3.698;2022-12-24T04:12:23;6.17;;;1.90;;
70547;SDS011;58099;43.406;3.698;2022-12-24T04:14:49;5.30;;;1.63;;
70547;SDS011;58099;43.406;3.698;2022-12-24T04:17:15;5.93;;;1.70;;
70547;SDS011;58099;43.406;3.698;2022-12-24T04:19:41;5.43;;;1.70;;
70547;SDS011;58099;43.406;3.698;2022-12-24T04:22:06;4.60;;;2.00;;
70547;SDS011;58099;43.406;3.698;2022-12-24T04:24:32;4.70;;;1.65;;
70547;SDS011;58099;43.406;3.698;2022-12-24T04:26:58;4.50;;;1.60;;
70547;SDS011;58099;43.406;3.698;2022-12-24T04:29:23;4.10;;;1.35;;
70547;SDS011;58099;43.406;3.698;2022-12-24T04:31:49;5.17;;;1.73;;
70547;SDS011;58099;43.406;3.698;2022-12-24T04:34:15;5.82;;;2.00;;
70547;SDS011;58099;43.406;3.698;2022-12-24T04:36:41;5.50;;;1.70;;
70547;SDS011;58099;43.406;3.698;2022-12-24T04:39:06;4.90;;;1.48;;
70547;SDS011;58099;43.406;3.698;2022-12-24T04:41:32;5.70;;;1.70;;
70547;SDS011;58099;43.406;3.698;2022-12-24T04:43:58;5.10;;;1.90;;
70547;SDS011;58099;43.406;3.698;2022-12-24T04:46:25;6.33;;;1.87;;
70547;SDS011;58099;43.406;3.698;2022-12-24T04:48:54;5.32;;;1.50;;
70547;SDS011;58099;43.406;3.698;2022-12-24T04:51:20;4.50;;;1.15;;
70547;SDS011;58099;43.406;3.698;2022-12-24T04:53:46;5.10;;;1.60;;
70547;SDS011;58099;43.406;3.698;2022-12-24T04:56:13;5.40;;;1.47;;
70547;SDS011;58099;43.406;3.698;2022-12-24T04:58:40;5.18;;;1.50;;
70547;SDS011;58099;43.406;3.698;2022-12-24T05:01:06;4.20;;;1.35;;
70547;SDS011;58099;43.406;3.698;2022-12-24T05:03:36;5.03;;;1.60;;
70547;SDS011;58099;43.406;3.698;2022-12-24T05:06:06;4.40;;;1.40;;
70547;SDS011;58099;43.406;3.698;2022-12-24T05:08:34;5.53;;;1.42;;
70547;SDS011;58099;43.406;3.698;2022-12-24T05:11:00;4.40;;;1.37;;
70547;SDS011;58099;43.406;3.698;2022-12-24T05:13:26;6.10;;;1.50;;
70547;SDS011;58099;43.406;3.698;2022-12-24T05:15:53;4.65;;;1.80;;
70547;SDS011;58099;43.406;3.698;2022-12-24T05:18:19;4.43;;;1.40;;
70547;SDS011;58099;43.406;3.698;2022-12-24T05:20:46;4.05;;;1.10;;
70547;SDS011;58099;43.406;3.698;2022-12-24T05:23:15;4.57;;;1.20;;
70547;SDS011;58099;43.406;3.698;2022-12-24T05:26:15;4.30;;;1.15;;
70547;SDS011;58099;43.406;3.698;2022-12-24T05:29:07;4.65;;;1.08;;
70547;SDS011;58099;43.406;3.698;2022-12-24T05:31:33;5.32;;;1.10;;
70547;SDS011;58099;43.406;3.698;2022-12-24T05:34:00;4.68;;;1.27;;
70547;SDS011;58099;43.406;3.698;2022-12-24T05:36:27;4.53;;;1.40;;
70547;SDS011;58099;43.406;3.698;2022-12-24T05:38:53;3.47;;;0.80;;
70547;SDS011;58099;43.406;3.698;2022-12-24T05:41:18;4.30;;;1.20;;
70547;SDS011;58099;43.406;3.698;2022-12-24T05:43:45;5.65;;;1.38;;
70547;SDS011;58099;43.406;3.698;2022-12-24T05:46:13;4.40;;;1.00;;
70547;SDS011;58099;43.406;3.698;2022-12-24T05:48:44;4.10;;;1.10;;
70547;SDS011;58099;43.406;3.698;2022-12-24T05:51:11;4.72;;;1.20;;
70547;SDS011;58099;43.406;3.698;2022-12-24T05:53:38;4.47;;;1.03;;
70547;SDS011;58099;43.406;3.698;2022-12-24T05:56:08;5.32;;;1.33;;
70547;SDS011;58099;43.406;3.698;2022-12-24T05:58:39;4.38;;;1.20;;
70547;SDS011;58099;43.406;3.698;2022-12-24T06:01:05;5.65;;;1.38;;
70547;SDS011;58099;43.406;3.698;2022-12-24T06:03:32;5.50;;;1.40;;
70547;SDS011;58099;43.406;3.698;2022-12-24T06:06:04;3.70;;;1.10;;
70547;SDS011;58099;43.406;3.698;2022-12-24T06:08:32;4.40;;;1.33;;
70547;SDS011;58099;43.406;3.698;2022-12-24T06:10:59;4.18;;;1.20;;
70547;SDS011;58099;43.406;3.698;2022-12-24T06:13:27;4.95;;;1.40;;
70547;SDS011;58099;43.406;3.698;2022-12-24T06:15:59;4.93;;;1.20;;
70547;SDS011;58099;43.406;3.698;2022-12-24T06:18:25;4.65;;;1.15;;
70547;SDS011;58099;43.406;3.698;2022-12-24T06:20:53;4.10;;;0.90;;
70547;SDS011;58099;43.406;3.698;2022-12-24T06:23:21;4.10;;;1.08;;
70547;SDS011;58099;43.406;3.698;2022-12-24T06:25:48;4.82;;;1.20;;
70547;SDS011;58099;43.406;3.698;2022-12-24T06:28:14;3.83;;;0.97;;
70547;SDS011;58099;43.406;3.698;2022-12-24T06:30:40;4.63;;;1.30;;
70547;SDS011;58099;43.406;3.698;2022-12-24T06:33:06;5.00;;;1.35;;
70547;SDS011;58099;43.406;3.698;2022-12-24T06:35:32;5.23;;;1.40;;
70547;SDS011;58099;43.406;3.698;2022-12-24T06:37:58;4.40;;;1.15;;
70547;SDS011;58099;43.406;3.698;2022-12-24T06:40:25;5.28;;;1.20;;
70547;SDS011;58099;43.406;3.698;2022-12-24T06:42:51;5.13;;;1.37;;
70547;SDS011;58099;43.406;3.698;2022-12-24T06:45:17;4.20;;;1.10;;
70547;SDS011;58099;43.406;3.698;2022-12-24T06:47:42;4.50;;;1.30;;
70547;SDS011;58099;43.406;3.698;2022-12-24T06:50:08;4.30;;;1.40;;
70547;SDS011;58099;43.406;3.698;2022-12-24T06:52:34;3.70;;;1.27;;
70547;SDS011;58099;43.406;3.698;2022-12-24T06:55:00;5.68;;;0.95;;
70547;SDS011;58099;43.406;3.698;2022-12-24T06:57:26;4.95;;;1.33;;
70547;SDS011;58099;43.406;3.698;2022-12-24T06:59:52;5.27;;;1.33;;
70547;SDS011;58099;43.406;3.698;2022-12-24T07:02:17;4.90;;;1.48;;
70547;SDS011;58099;43.406;3.698;2022-12-24T07:04:43;4.00;;;1.27;;
70547;SDS011;58099;43.406;3.698;2022-12-24T07:07:09;5.70;;;1.42;;
70547;SDS011;58099;43.406;3.698;2022-12-24T07:09:35;4.83;;;1.60;;
70547;SDS011;58099;43.406;3.698;2022-12-24T07:12:00;6.13;;;1.90;;
70547;SDS011;58099;43.406;3.698;2022-12-24T07:14:26;5.63;;;2.13;;
70547;SDS011;58099;43.406;3.698;2022-12-24T07:16:52;5.65;;;1.70;;
70547;SDS011;58099;43.406;3.698;2022-12-24T07:19:17;5.93;;;2.08;;
70547;SDS011;58099;43.406;3.698;2022-12-24T07:21:43;4.17;;;1.30;;
70547;SDS011;58099;43.406;3.698;2022-12-24T07:24:08;4.72;;;1.60;;
70547;SDS011;58099;43.406;3.698;2022-12-24T07:26:34;6.30;;;1.70;;
70547;SDS011;58099;43.406;3.698;2022-12-24T07:29:00;6.15;;;2.13;;
70547;SDS011;58099;43.406;3.698;2022-12-24T07:31:26;5.33;;;2.03;;
70547;SDS011;58099;43.406;3.698;2022-12-24T07:33:51;7.95;;;2.58;;
70547;SDS011;58099;43.406;3.698;2022-12-24T07:36:18;6.55;;;1.88;;
70547;SDS011;58099;43.406;3.698;2022-12-24T07:38:45;6.55;;;3.10;;
70547;SDS011;58099;43.406;3.698;2022-12-24T07:41:11;8.17;;;3.13;;
70547;SDS011;58099;43.406;3.698;2022-12-24T07:43:37;7.75;;;3.60;;
70547;SDS011;58099;43.406;3.698;2022-12-24T07:46:03;7.78;;;3.45;;
70547;SDS011;58099;43.406;3.698;2022-12-24T07:48:29;8.33;;;2.90;;
70547;SDS011;58099;43.406;3.698;2022-12-24T07:50:57;6.97;;;2.55;;
70547;SDS011;58099;43.406;3.698;2022-12-24T07:53:24;6.80;;;2.75;;
70547;SDS011;58099;43.406;3.698;2022-12-24T07:55:51;8.32;;;3.35;;
70547;SDS011;58099;43.406;3.698;2022-12-24T07:58:17;8.30;;;3.58;;
70547;SDS011;58099;43.406;3.698;2022-12-24T08:00:43;8.83;;;3.50;;
70547;SDS011;58099;43.406;3.698;2022-12-24T08:03:15;8.80;;;3.63;;
70547;SDS011;58099;43.406;3.698;2022-12-24T08:05:42;6.50;;;3.40;;
70547;SDS011;58099;43.406;3.698;2022-12-24T08:08:08;6.40;;;2.37;;
70547;SDS011;58099;43.406;3.698;2022-12-24T08:10:34;10.00;;;3.30;;
70547;SDS011;58099;43.406;3.698;2022-12-24T08:13:02;8.10;;;2.80;;
70547;SDS011;58099;43.406;3.698;2022-12-24T08:15:27;6.35;;;2.13;;
70547;SDS011;58099;43.406;3.698;2022-12-24T08:17:53;10.52;;;3.80;;
70547;SDS011;58099;43.406;3.698;2022-12-24T08:20:19;7.63;;;2.23;;
70547;SDS011;58099;43.406;3.698;2022-12-24T08:22:45;6.87;;;2.43;;
70547;SDS011;58099;43.406;3.698;2022-12-24T08:25:10;7.30;;;2.33;;
70547;SDS011;58099;43.406;3.698;2022-12-24T08:27:36;7.67;;;1.90;;
70547;SDS011;58099;43.406;3.698;2022-12-24T08:30:02;6.30;;;1.92;;
70547;SDS011;58099;43.406;3.698;2022-12-24T08:32:29;5.93;;;1.85;;
70547;SDS011;58099;43.406;3.698;2022-12-24T08:34:55;7.40;;;1.93;;
70547;SDS011;58099;43.406;3.698;2022-12-24T08:37:20;5.68;;;1.25;;
70547;SDS011;58099;43.406;3.698;2022-12-24T08:39:46;5.10;;;1.30;;
70547;SDS011;58099;43.406;3.698;2022-12-24T08:42:12;4.38;;;1.52;;
70547;SDS011;58099;43.406;3.698;2022-12-24T08:44:37;5.93;;;1.40;;
70547;SDS011;58099;43.406;3.698;2022-12-24T08:47:03;5.45;;;3.00;;
70547;SDS011;58099;43.406;3.698;2022-12-24T08:49:29;6.18;;;1.70;;
70547;SDS011;58099;43.406;3.698;2022-12-24T08:51:54;4.33;;;1.37;;
70547;SDS011;58099;43.406;3.698;2022-12-24T08:54:20;4.10;;;1.23;;
70547;SDS011;58099;43.406;3.698;2022-12-24T08:56:47;4.00;;;1.60;;
70547;SDS011;58099;43.406;3.698;2022-12-24T08:59:13;5.13;;;1.52;;
70547;SDS011;58099;43.406;3.698;2022-12-24T09:01:39;3.97;;;1.25;;
70547;SDS011;58099;43.406;3.698;2022-12-24T09:04:04;4.77;;;1.50;;
70547;SDS011;58099;43.406;3.698;2022-12-24T09:06:31;5.38;;;1.35;;
70547;SDS011;58099;43.406;3.698;2022-12-24T09:08:57;6.68;;;1.45;;
70547;SDS011;58099;43.406;3.698;2022-12-24T09:11:23;4.45;;;1.50;;
70547;SDS011;58099;43.406;3.698;2022-12-24T09:13:49;4.10;;;1.65;;
70547;SDS011;58099;43.406;3.698;2022-12-24T09:16:15;3.97;;;1.20;;
70547;SDS011;58099;43.406;3.698;2022-12-24T09:18:41;7.05;;;1.75;;
70547;SDS011;58099;43.406;3.698;2022-12-24T09:21:08;6.10;;;1.70;;
70547;SDS011;58099;43.406;3.698;2022-12-24T09:23:38;4.00;;;1.35;;
70547;SDS011;58099;43.406;3.698;2022-12-24T09:26:07;4.15;;;1.55;;
70547;SDS011;58099;43.406;3.698;2022-12-24T09:28:34;4.90;;;1.70;;
70547;SDS011;58099;43.406;3.698;2022-12-24T09:31:01;5.60;;;1.45;;
70547;SDS011;58099;43.406;3.698;2022-12-24T09:33:28;5.80;;;1.17;;
70547;SDS011;58099;43.406;3.698;2022-12-24T09:35:56;4.72;;;1.20;;
70547;SDS011;58099;43.406;3.698;2022-12-24T09:38:22;6.95;;;1.45;;
70547;SDS011;58099;43.406;3.698;2022-12-24T09:40:49;6.00;;;1.35;;
70547;SDS011;58099;43.406;3.698;2022-12-24T09:43:17;23.23;;;2.60;;
70547;SDS011;58099;43.406;3.698;2022-12-24T09:45:47;12.00;;;2.03;;
70547;SDS011;58099;43.406;3.698;2022-12-24T09:48:20;8.10;;;1.50;;
70547;SDS011;58099;43.406;3.698;2022-12-24T09:50:52;8.73;;;1.65;;
70547;SDS011;58099;43.406;3.698;2022-12-24T09:53:25;6.82;;;1.50;;
70547;SDS011;58099;43.406;3.698;2022-12-24T09:56:02;9.97;;;2.20;;
70547;SDS011;58099;43.406;3.698;2022-12-24T09:58:34;7.60;;;2.13;;
70547;SDS011;58099;43.406;3.698;2022-12-24T10:01:05;8.68;;;2.03;;
70547;SDS011;58099;43.406;3.698;2022-12-24T10:03:31;7.50;;;1.83;;
70547;SDS011;58099;43.406;3.698;2022-12-24T10:11:45;8.20;;;1.52;;
70547;SDS011;58099;43.406;3.698;2022-12-24T10:14:36;6.70;;;1.50;;
70547;SDS011;58099;43.406;3.698;2022-12-24T10:19:57;6.00;;;1.50;;
70547;SDS011;58099;43.406;3.698;2022-12-24T10:25:23;7.07;;;1.88;;
70547;SDS011;58099;43.406;3.698;2022-12-24T10:27:58;10.18;;;1.90;;
70547;SDS011;58099;43.406;3.698;2022-12-24T10:30:26;4.70;;;1.70;;
70547;SDS011;58099;43.406;3.698;2022-12-24T10:32:53;5.38;;;1.80;;
70547;SDS011;58099;43.406;3.698;2022-12-24T10:35:26;6.83;;;2.00;;
70547;SDS011;58099;43.406;3.698;2022-12-24T10:37:56;5.35;;;1.67;;
70547;SDS011;58099;43.406;3.698;2022-12-24T10:40:27;7.88;;;1.70;;
70547;SDS011;58099;43.406;3.698;2022-12-24T10:42:55;9.77;;;1.90;;
70547;SDS011;58099;43.406;3.698;2022-12-24T10:45:21;4.97;;;1.40;;
70547;SDS011;58099;43.406;3.698;2022-12-24T10:47:50;5.65;;;1.33;;
70547;SDS011;58099;43.406;3.698;2022-12-24T10:53:18;5.18;;;1.50;;
70547;SDS011;58099;43.406;3.698;2022-12-24T10:56:06;3.63;;;1.60;;
70547;SDS011;58099;43.406;3.698;2022-12-24T10:58:35;4.38;;;1.60;;
70547;SDS011;58099;43.406;3.698;2022-12-24T11:01:01;5.70;;;1.65;;
70547;SDS011;58099;43.406;3.698;2022-12-24T11:03:34;4.88;;;1.25;;
70547;SDS011;58099;43.406;3.698;2022-12-24T11:06:02;4.75;;;1.48;;
70547;SDS011;58099;43.406;3.698;2022-12-24T11:08:34;6.87;;;1.60;;
70547;SDS011;58099;43.406;3.698;2022-12-24T11:11:06;7.38;;;2.60;;
70547;SDS011;58099;43.406;3.698;2022-12-24T11:13:36;6.38;;;1.75;;
70547;SDS011;58099;43.406;3.698;2022-12-24T11:19:00;6.25;;;1.70;;
70547;SDS011;58099;43.406;3.698;2022-12-24T11:21:34;6.87;;;2.20;;
70547;SDS011;58099;43.406;3.698;2022-12-24T11:24:07;4.70;;;1.90;;
70547;SDS011;58099;43.406;3.698;2022-12-24T11:26:44;6.50;;;1.83;;
70547;SDS011;58099;43.406;3.698;2022-12-24T11:31:42;6.65;;;2.38;;
70547;SDS011;58099;43.406;3.698;2022-12-24T11:34:27;7.57;;;2.40;;
70547;SDS011;58099;43.406;3.698;2022-12-24T11:37:12;5.70;;;2.42;;
70547;SDS011;58099;43.406;3.698;2022-12-24T11:39:51;17.35;;;3.42;;
70547;SDS011;58099;43.406;3.698;2022-12-24T11:42:32;10.13;;;3.07;;
70547;SDS011;58099;43.406;3.698;2022-12-24T11:45:03;8.55;;;2.95;;
70547;SDS011;58099;43.406;3.698;2022-12-24T11:47:38;10.23;;;2.47;;
70547;SDS011;58099;43.406;3.698;2022-12-24T11:58:22;6.18;;;2.40;;
70547;SDS011;58099;43.406;3.698;2022-12-24T12:00:51;4.95;;;2.20;;
70547;SDS011;58099;43.406;3.698;2022-12-24T12:05:58;6.28;;;2.20;;
70547;SDS011;58099;43.406;3.698;2022-12-24T12:08:27;5.53;;;2.20;;
70547;SDS011;58099;43.406;3.698;2022-12-24T12:10:55;6.38;;;2.20;;
70547;SDS011;58099;43.406;3.698;2022-12-24T12:13:28;5.63;;;2.40;;
70547;SDS011;58099;43.406;3.698;2022-12-24T12:18:45;7.18;;;3.47;;
70547;SDS011;58099;43.406;3.698;2022-12-24T12:21:20;5.93;;;3.13;;
70547;SDS011;58099;43.406;3.698;2022-12-24T12:24:33;6.13;;;2.95;;
70547;SDS011;58099;43.406;3.698;2022-12-24T12:26:43;5.32;;;2.70;;
70547;SDS011;58099;43.406;3.698;2022-12-24T12:29:20;4.57;;;2.22;;
70547;SDS011;58099;43.406;3.698;2022-12-24T12:31:59;4.82;;;2.17;;
70547;SDS011;58099;43.406;3.698;2022-12-24T12:37:04;5.95;;;2.30;;
70547;SDS011;58099;43.406;3.698;2022-12-24T12:39:54;4.80;;;1.90;;
70547;SDS011;58099;43.406;3.698;2022-12-24T12:42:32;4.97;;;1.92;;
70547;SDS011;58099;43.406;3.698;2022-12-24T12:47:54;4.55;;;1.98;;
70547;SDS011;58099;43.406;3.698;2022-12-24T12:58:52;4.90;;;1.73;;
70547;SDS011;58099;43.406;3.698;2022-12-24T13:01:28;5.30;;;1.95;;
